sensor_id;sensor_type;location;lat;lon;timestamp;P1;durP1;ratioP1;P2;durP2;ratioP2
54831;SDS011;40730;53.068;6.572;2023-05-14T00:00:42;18.55;;;11.63;;
54831;SDS011;40730;53.068;6.572;2023-05-14T00:03:07;21.77;;;12.13;;
54831;SDS011;40730;53.068;6.572;2023-05-14T00:05:33;20.90;;;12.57;;
54831;SDS011;40730;53.068;6.572;2023-05-14T00:07:59;18.08;;;11.88;;
54831;SDS011;40730;53.068;6.572;2023-05-14T00:10:25;24.00;;;13.38;;
54831;SDS011;40730;53.068;6.572;2023-05-14T00:12:51;17.48;;;11.30;;
54831;SDS011;40730;53.068;6.572;2023-05-14T00:15:17;21.20;;;11.65;;
54831;SDS011;40730;53.068;6.572;2023-05-14T00:17:43;18.05;;;12.02;;
54831;SDS011;40730;53.068;6.572;2023-05-14T00:20:08;18.40;;;11.63;;
54831;SDS011;40730;53.068;6.572;2023-05-14T00:22:36;18.10;;;11.07;;
54831;SDS011;40730;53.068;6.572;2023-05-14T00:25:03;18.17;;;12.05;;
54831;SDS011;40730;53.068;6.572;2023-05-14T00:27:30;20.05;;;11.13;;
54831;SDS011;40730;53.068;6.572;2023-05-14T00:29:56;17.60;;;11.60;;
54831;SDS011;40730;53.068;6.572;2023-05-14T00:32:22;17.67;;;11.05;;
54831;SDS011;40730;53.068;6.572;2023-05-14T00:34:48;17.17;;;10.77;;
54831;SDS011;40730;53.068;6.572;2023-05-14T00:37:14;20.10;;;11.10;;
54831;SDS011;40730;53.068;6.572;2023-05-14T00:39:39;19.33;;;11.82;;
54831;SDS011;40730;53.068;6.572;2023-05-14T00:42:05;17.60;;;10.80;;
54831;SDS011;40730;53.068;6.572;2023-05-14T00:44:31;19.52;;;11.30;;
54831;SDS011;40730;53.068;6.572;2023-05-14T00:46:57;17.00;;;11.75;;
54831;SDS011;40730;53.068;6.572;2023-05-14T00:49:23;12.32;;;9.23;;
54831;SDS011;40730;53.068;6.572;2023-05-14T00:51:50;23.13;;;11.45;;
54831;SDS011;40730;53.068;6.572;2023-05-14T00:54:16;15.82;;;11.32;;
54831;SDS011;40730;53.068;6.572;2023-05-14T00:56:46;14.65;;;8.95;;
54831;SDS011;40730;53.068;6.572;2023-05-14T00:59:12;15.68;;;10.60;;
54831;SDS011;40730;53.068;6.572;2023-05-14T01:01:38;19.48;;;10.90;;
54831;SDS011;40730;53.068;6.572;2023-05-14T01:04:04;21.90;;;10.82;;
54831;SDS011;40730;53.068;6.572;2023-05-14T01:09:39;15.63;;;10.50;;
54831;SDS011;40730;53.068;6.572;2023-05-14T01:12:20;21.20;;;10.90;;
54831;SDS011;40730;53.068;6.572;2023-05-14T01:15:13;16.90;;;9.68;;
54831;SDS011;40730;53.068;6.572;2023-05-14T01:17:53;17.88;;;9.57;;
54831;SDS011;40730;53.068;6.572;2023-05-14T01:20:24;19.88;;;10.48;;
54831;SDS011;40730;53.068;6.572;2023-05-14T01:22:50;18.35;;;10.65;;
54831;SDS011;40730;53.068;6.572;2023-05-14T01:25:16;15.50;;;9.82;;
54831;SDS011;40730;53.068;6.572;2023-05-14T01:27:45;14.77;;;9.93;;
54831;SDS011;40730;53.068;6.572;2023-05-14T01:30:30;18.17;;;11.18;;
54831;SDS011;40730;53.068;6.572;2023-05-14T01:33:26;16.48;;;10.35;;
54831;SDS011;40730;53.068;6.572;2023-05-14T01:35:53;21.67;;;11.57;;
54831;SDS011;40730;53.068;6.572;2023-05-14T01:38:20;21.48;;;10.63;;
54831;SDS011;40730;53.068;6.572;2023-05-14T01:40:47;13.52;;;9.32;;
54831;SDS011;40730;53.068;6.572;2023-05-14T01:43:14;17.55;;;10.35;;
54831;SDS011;40730;53.068;6.572;2023-05-14T01:45:40;18.75;;;9.88;;
54831;SDS011;40730;53.068;6.572;2023-05-14T01:48:07;27.15;;;12.10;;
54831;SDS011;40730;53.068;6.572;2023-05-14T01:50:33;18.23;;;11.07;;
54831;SDS011;40730;53.068;6.572;2023-05-14T01:52:59;19.73;;;11.73;;
54831;SDS011;40730;53.068;6.572;2023-05-14T01:55:24;15.70;;;9.98;;
54831;SDS011;40730;53.068;6.572;2023-05-14T01:57:50;20.70;;;10.90;;
54831;SDS011;40730;53.068;6.572;2023-05-14T02:00:16;21.98;;;10.05;;
54831;SDS011;40730;53.068;6.572;2023-05-14T02:02:42;25.60;;;10.50;;
54831;SDS011;40730;53.068;6.572;2023-05-14T02:05:09;20.58;;;11.05;;
54831;SDS011;40730;53.068;6.572;2023-05-14T02:07:35;21.63;;;12.95;;
54831;SDS011;40730;53.068;6.572;2023-05-14T02:10:01;23.40;;;11.80;;
54831;SDS011;40730;53.068;6.572;2023-05-14T02:12:26;19.33;;;11.52;;
54831;SDS011;40730;53.068;6.572;2023-05-14T02:14:52;23.27;;;11.93;;
54831;SDS011;40730;53.068;6.572;2023-05-14T02:17:18;23.10;;;11.20;;
54831;SDS011;40730;53.068;6.572;2023-05-14T02:19:44;23.98;;;12.45;;
54831;SDS011;40730;53.068;6.572;2023-05-14T02:22:10;19.75;;;12.07;;
54831;SDS011;40730;53.068;6.572;2023-05-14T02:24:36;23.23;;;13.30;;
54831;SDS011;40730;53.068;6.572;2023-05-14T02:27:02;19.48;;;12.15;;
54831;SDS011;40730;53.068;6.572;2023-05-14T02:29:27;26.85;;;13.35;;
54831;SDS011;40730;53.068;6.572;2023-05-14T02:31:53;27.10;;;12.23;;
54831;SDS011;40730;53.068;6.572;2023-05-14T02:34:18;18.88;;;12.63;;
54831;SDS011;40730;53.068;6.572;2023-05-14T02:36:44;22.85;;;12.63;;
54831;SDS011;40730;53.068;6.572;2023-05-14T02:39:10;23.40;;;11.85;;
54831;SDS011;40730;53.068;6.572;2023-05-14T02:41:35;22.08;;;11.85;;
54831;SDS011;40730;53.068;6.572;2023-05-14T02:44:01;15.90;;;9.43;;
54831;SDS011;40730;53.068;6.572;2023-05-14T02:46:26;21.67;;;12.02;;
54831;SDS011;40730;53.068;6.572;2023-05-14T02:48:52;22.25;;;12.25;;
54831;SDS011;40730;53.068;6.572;2023-05-14T02:51:21;19.08;;;11.90;;
54831;SDS011;40730;53.068;6.572;2023-05-14T02:53:47;19.88;;;10.65;;
54831;SDS011;40730;53.068;6.572;2023-05-14T02:56:12;23.42;;;11.52;;
54831;SDS011;40730;53.068;6.572;2023-05-14T02:58:38;23.75;;;12.70;;
54831;SDS011;40730;53.068;6.572;2023-05-14T03:01:04;24.80;;;13.07;;
54831;SDS011;40730;53.068;6.572;2023-05-14T03:03:29;27.13;;;12.77;;
54831;SDS011;40730;53.068;6.572;2023-05-14T03:05:55;27.35;;;12.50;;
54831;SDS011;40730;53.068;6.572;2023-05-14T03:08:21;18.90;;;12.93;;
54831;SDS011;40730;53.068;6.572;2023-05-14T03:10:46;23.67;;;13.45;;
54831;SDS011;40730;53.068;6.572;2023-05-14T03:13:12;18.23;;;12.73;;
54831;SDS011;40730;53.068;6.572;2023-05-14T03:15:41;20.55;;;13.05;;
54831;SDS011;40730;53.068;6.572;2023-05-14T03:18:07;16.88;;;9.73;;
54831;SDS011;40730;53.068;6.572;2023-05-14T03:20:33;18.73;;;11.30;;
54831;SDS011;40730;53.068;6.572;2023-05-14T03:22:59;23.10;;;12.55;;
54831;SDS011;40730;53.068;6.572;2023-05-14T03:25:24;24.27;;;14.13;;
54831;SDS011;40730;53.068;6.572;2023-05-14T03:27:50;20.92;;;10.07;;
54831;SDS011;40730;53.068;6.572;2023-05-14T03:30:16;22.85;;;11.45;;
54831;SDS011;40730;53.068;6.572;2023-05-14T03:32:41;23.75;;;13.60;;
54831;SDS011;40730;53.068;6.572;2023-05-14T03:35:07;18.40;;;10.18;;
54831;SDS011;40730;53.068;6.572;2023-05-14T03:37:33;20.45;;;10.68;;
54831;SDS011;40730;53.068;6.572;2023-05-14T03:39:59;23.10;;;11.23;;
54831;SDS011;40730;53.068;6.572;2023-05-14T03:42:24;20.40;;;11.02;;
54831;SDS011;40730;53.068;6.572;2023-05-14T03:44:51;22.02;;;11.52;;
54831;SDS011;40730;53.068;6.572;2023-05-14T03:47:16;23.45;;;13.20;;
54831;SDS011;40730;53.068;6.572;2023-05-14T03:49:42;29.92;;;13.85;;
54831;SDS011;40730;53.068;6.572;2023-05-14T03:52:07;22.58;;;10.98;;
54831;SDS011;40730;53.068;6.572;2023-05-14T03:54:33;16.05;;;9.85;;
54831;SDS011;40730;53.068;6.572;2023-05-14T03:56:59;17.92;;;10.52;;
54831;SDS011;40730;53.068;6.572;2023-05-14T03:59:25;19.08;;;10.85;;
54831;SDS011;40730;53.068;6.572;2023-05-14T04:01:51;17.73;;;10.00;;
54831;SDS011;40730;53.068;6.572;2023-05-14T04:04:17;20.05;;;10.35;;
54831;SDS011;40730;53.068;6.572;2023-05-14T04:06:42;28.08;;;12.98;;
54831;SDS011;40730;53.068;6.572;2023-05-14T04:09:08;22.60;;;10.95;;
54831;SDS011;40730;53.068;6.572;2023-05-14T04:11:35;25.75;;;11.65;;
54831;SDS011;40730;53.068;6.572;2023-05-14T04:14:00;27.23;;;11.80;;
54831;SDS011;40730;53.068;6.572;2023-05-14T04:16:26;23.10;;;13.55;;
54831;SDS011;40730;53.068;6.572;2023-05-14T04:18:51;23.75;;;12.55;;
54831;SDS011;40730;53.068;6.572;2023-05-14T04:21:17;27.38;;;14.05;;
54831;SDS011;40730;53.068;6.572;2023-05-14T04:23:43;31.00;;;15.13;;
54831;SDS011;40730;53.068;6.572;2023-05-14T04:26:08;29.25;;;15.75;;
54831;SDS011;40730;53.068;6.572;2023-05-14T04:28:34;34.53;;;16.42;;
54831;SDS011;40730;53.068;6.572;2023-05-14T04:30:59;37.80;;;17.30;;
54831;SDS011;40730;53.068;6.572;2023-05-14T04:33:25;37.38;;;16.45;;
54831;SDS011;40730;53.068;6.572;2023-05-14T04:35:51;33.67;;;16.30;;
54831;SDS011;40730;53.068;6.572;2023-05-14T04:38:16;22.25;;;13.93;;
54831;SDS011;40730;53.068;6.572;2023-05-14T04:40:42;31.38;;;15.18;;
54831;SDS011;40730;53.068;6.572;2023-05-14T04:43:08;38.47;;;17.40;;
54831;SDS011;40730;53.068;6.572;2023-05-14T04:45:34;31.20;;;15.00;;
54831;SDS011;40730;53.068;6.572;2023-05-14T04:48:00;37.38;;;17.20;;
54831;SDS011;40730;53.068;6.572;2023-05-14T04:50:27;30.58;;;16.48;;
54831;SDS011;40730;53.068;6.572;2023-05-14T04:52:53;32.20;;;16.13;;
54831;SDS011;40730;53.068;6.572;2023-05-14T04:55:19;48.08;;;18.45;;
54831;SDS011;40730;53.068;6.572;2023-05-14T04:57:45;38.95;;;19.83;;
54831;SDS011;40730;53.068;6.572;2023-05-14T05:00:11;41.83;;;19.33;;
54831;SDS011;40730;53.068;6.572;2023-05-14T05:02:37;41.15;;;18.85;;
54831;SDS011;40730;53.068;6.572;2023-05-14T05:05:03;40.85;;;19.55;;
54831;SDS011;40730;53.068;6.572;2023-05-14T05:07:28;46.95;;;20.17;;
54831;SDS011;40730;53.068;6.572;2023-05-14T05:09:54;45.60;;;21.67;;
54831;SDS011;40730;53.068;6.572;2023-05-14T05:12:20;45.60;;;20.70;;
54831;SDS011;40730;53.068;6.572;2023-05-14T05:14:45;34.72;;;18.40;;
54831;SDS011;40730;53.068;6.572;2023-05-14T05:17:11;52.90;;;21.48;;
54831;SDS011;40730;53.068;6.572;2023-05-14T05:19:36;43.63;;;20.00;;
54831;SDS011;40730;53.068;6.572;2023-05-14T05:22:03;36.20;;;18.92;;
54831;SDS011;40730;53.068;6.572;2023-05-14T05:24:28;43.30;;;20.05;;
54831;SDS011;40730;53.068;6.572;2023-05-14T05:26:54;38.13;;;19.15;;
54831;SDS011;40730;53.068;6.572;2023-05-14T05:29:21;37.30;;;19.52;;
54831;SDS011;40730;53.068;6.572;2023-05-14T05:31:47;39.67;;;18.45;;
54831;SDS011;40730;53.068;6.572;2023-05-14T05:34:13;42.70;;;18.48;;
54831;SDS011;40730;53.068;6.572;2023-05-14T05:36:38;37.53;;;17.88;;
54831;SDS011;40730;53.068;6.572;2023-05-14T05:39:04;42.28;;;18.65;;
54831;SDS011;40730;53.068;6.572;2023-05-14T05:41:30;40.47;;;18.23;;
54831;SDS011;40730;53.068;6.572;2023-05-14T05:43:55;37.53;;;17.25;;
54831;SDS011;40730;53.068;6.572;2023-05-14T05:46:21;32.40;;;16.77;;
54831;SDS011;40730;53.068;6.572;2023-05-14T05:48:46;31.90;;;18.48;;
54831;SDS011;40730;53.068;6.572;2023-05-14T05:51:12;33.78;;;17.10;;
54831;SDS011;40730;53.068;6.572;2023-05-14T05:53:38;25.60;;;15.88;;
54831;SDS011;40730;53.068;6.572;2023-05-14T05:56:03;30.70;;;14.75;;
54831;SDS011;40730;53.068;6.572;2023-05-14T05:58:30;26.98;;;14.27;;
54831;SDS011;40730;53.068;6.572;2023-05-14T06:00:56;25.60;;;15.27;;
54831;SDS011;40730;53.068;6.572;2023-05-14T06:03:22;27.75;;;13.73;;
54831;SDS011;40730;53.068;6.572;2023-05-14T06:05:47;27.85;;;11.85;;
54831;SDS011;40730;53.068;6.572;2023-05-14T06:08:13;25.08;;;12.48;;
54831;SDS011;40730;53.068;6.572;2023-05-14T06:10:38;29.73;;;10.88;;
54831;SDS011;40730;53.068;6.572;2023-05-14T06:13:04;26.90;;;11.35;;
54831;SDS011;40730;53.068;6.572;2023-05-14T06:15:30;26.60;;;10.20;;
54831;SDS011;40730;53.068;6.572;2023-05-14T06:17:56;24.77;;;9.85;;
54831;SDS011;40730;53.068;6.572;2023-05-14T06:20:22;18.75;;;8.80;;
54831;SDS011;40730;53.068;6.572;2023-05-14T06:22:47;23.10;;;9.52;;
54831;SDS011;40730;53.068;6.572;2023-05-14T06:25:13;19.15;;;8.32;;
54831;SDS011;40730;53.068;6.572;2023-05-14T06:27:38;22.60;;;8.60;;
54831;SDS011;40730;53.068;6.572;2023-05-14T06:30:04;23.05;;;8.02;;
54831;SDS011;40730;53.068;6.572;2023-05-14T06:32:31;20.35;;;7.57;;
54831;SDS011;40730;53.068;6.572;2023-05-14T06:34:56;19.42;;;8.50;;
54831;SDS011;40730;53.068;6.572;2023-05-14T06:37:22;23.92;;;7.97;;
54831;SDS011;40730;53.068;6.572;2023-05-14T06:39:47;17.70;;;7.20;;
54831;SDS011;40730;53.068;6.572;2023-05-14T06:42:16;19.60;;;7.80;;
54831;SDS011;40730;53.068;6.572;2023-05-14T06:44:42;17.27;;;8.30;;
54831;SDS011;40730;53.068;6.572;2023-05-14T06:47:08;22.05;;;8.50;;
54831;SDS011;40730;53.068;6.572;2023-05-14T06:49:34;21.27;;;8.18;;
54831;SDS011;40730;53.068;6.572;2023-05-14T06:52:00;20.00;;;8.30;;
54831;SDS011;40730;53.068;6.572;2023-05-14T06:54:26;17.30;;;8.00;;
54831;SDS011;40730;53.068;6.572;2023-05-14T06:56:52;18.77;;;8.00;;
54831;SDS011;40730;53.068;6.572;2023-05-14T06:59:18;15.23;;;7.53;;
54831;SDS011;40730;53.068;6.572;2023-05-14T07:01:43;16.60;;;6.80;;
54831;SDS011;40730;53.068;6.572;2023-05-14T07:04:09;20.13;;;7.22;;
54831;SDS011;40730;53.068;6.572;2023-05-14T07:06:34;17.13;;;6.70;;
54831;SDS011;40730;53.068;6.572;2023-05-14T07:09:00;16.58;;;7.07;;
54831;SDS011;40730;53.068;6.572;2023-05-14T07:11:26;15.60;;;7.13;;
54831;SDS011;40730;53.068;6.572;2023-05-14T07:13:52;17.65;;;7.22;;
54831;SDS011;40730;53.068;6.572;2023-05-14T07:16:17;15.77;;;5.65;;
54831;SDS011;40730;53.068;6.572;2023-05-14T07:18:43;10.60;;;4.78;;
54831;SDS011;40730;53.068;6.572;2023-05-14T07:21:09;13.50;;;5.20;;
54831;SDS011;40730;53.068;6.572;2023-05-14T07:23:35;10.95;;;4.55;;
54831;SDS011;40730;53.068;6.572;2023-05-14T07:26:02;9.65;;;4.10;;
54831;SDS011;40730;53.068;6.572;2023-05-14T07:28:31;11.02;;;4.35;;
54831;SDS011;40730;53.068;6.572;2023-05-14T07:30:57;9.35;;;4.70;;
54831;SDS011;40730;53.068;6.572;2023-05-14T07:33:23;12.52;;;4.57;;
54831;SDS011;40730;53.068;6.572;2023-05-14T07:35:49;9.45;;;3.50;;
54831;SDS011;40730;53.068;6.572;2023-05-14T07:38:15;12.82;;;4.28;;
54831;SDS011;40730;53.068;6.572;2023-05-14T07:40:41;13.32;;;3.80;;
54831;SDS011;40730;53.068;6.572;2023-05-14T07:43:07;12.45;;;4.43;;
54831;SDS011;40730;53.068;6.572;2023-05-14T07:45:34;9.75;;;4.22;;
54831;SDS011;40730;53.068;6.572;2023-05-14T07:48:00;9.82;;;4.07;;
54831;SDS011;40730;53.068;6.572;2023-05-14T07:50:26;12.52;;;4.47;;
54831;SDS011;40730;53.068;6.572;2023-05-14T07:52:51;10.63;;;4.20;;
54831;SDS011;40730;53.068;6.572;2023-05-14T07:55:17;15.50;;;4.32;;
54831;SDS011;40730;53.068;6.572;2023-05-14T07:57:43;8.82;;;4.00;;
54831;SDS011;40730;53.068;6.572;2023-05-14T08:00:09;9.02;;;4.28;;
54831;SDS011;40730;53.068;6.572;2023-05-14T08:02:35;11.15;;;4.22;;
54831;SDS011;40730;53.068;6.572;2023-05-14T08:05:01;13.93;;;4.57;;
54831;SDS011;40730;53.068;6.572;2023-05-14T08:07:28;9.75;;;3.65;;
54831;SDS011;40730;53.068;6.572;2023-05-14T08:09:54;14.65;;;4.35;;
54831;SDS011;40730;53.068;6.572;2023-05-14T08:12:20;13.25;;;4.38;;
54831;SDS011;40730;53.068;6.572;2023-05-14T08:14:45;9.82;;;3.10;;
54831;SDS011;40730;53.068;6.572;2023-05-14T08:17:11;9.27;;;3.15;;
54831;SDS011;40730;53.068;6.572;2023-05-14T08:19:37;12.32;;;3.45;;
54831;SDS011;40730;53.068;6.572;2023-05-14T08:22:03;8.40;;;3.40;;
54831;SDS011;40730;53.068;6.572;2023-05-14T08:24:29;9.45;;;4.40;;
54831;SDS011;40730;53.068;6.572;2023-05-14T08:26:55;11.10;;;3.92;;
54831;SDS011;40730;53.068;6.572;2023-05-14T08:29:20;15.02;;;3.92;;
54831;SDS011;40730;53.068;6.572;2023-05-14T08:31:47;13.00;;;4.57;;
54831;SDS011;40730;53.068;6.572;2023-05-14T08:34:13;10.77;;;4.15;;
54831;SDS011;40730;53.068;6.572;2023-05-14T08:36:39;8.60;;;3.20;;
54831;SDS011;40730;53.068;6.572;2023-05-14T08:39:05;9.13;;;3.63;;
54831;SDS011;40730;53.068;6.572;2023-05-14T08:41:34;8.45;;;3.00;;
54831;SDS011;40730;53.068;6.572;2023-05-14T08:44:09;11.77;;;3.95;;
54831;SDS011;40730;53.068;6.572;2023-05-14T08:46:37;5.85;;;3.00;;
54831;SDS011;40730;53.068;6.572;2023-05-14T08:49:09;8.95;;;3.95;;
54831;SDS011;40730;53.068;6.572;2023-05-14T08:51:42;13.25;;;4.47;;
54831;SDS011;40730;53.068;6.572;2023-05-14T08:54:09;7.28;;;3.88;;
54831;SDS011;40730;53.068;6.572;2023-05-14T08:56:39;11.10;;;3.58;;
54831;SDS011;40730;53.068;6.572;2023-05-14T08:59:05;8.35;;;3.65;;
54831;SDS011;40730;53.068;6.572;2023-05-14T09:01:31;10.98;;;3.60;;
54831;SDS011;40730;53.068;6.572;2023-05-14T09:03:57;11.60;;;4.43;;
54831;SDS011;40730;53.068;6.572;2023-05-14T09:06:25;11.82;;;4.28;;
54831;SDS011;40730;53.068;6.572;2023-05-14T09:08:51;8.48;;;4.00;;
54831;SDS011;40730;53.068;6.572;2023-05-14T09:11:18;11.07;;;4.20;;
54831;SDS011;40730;53.068;6.572;2023-05-14T09:13:43;9.13;;;3.80;;
54831;SDS011;40730;53.068;6.572;2023-05-14T09:16:09;14.00;;;4.63;;
54831;SDS011;40730;53.068;6.572;2023-05-14T09:18:35;8.88;;;4.35;;
54831;SDS011;40730;53.068;6.572;2023-05-14T09:21:00;8.93;;;4.38;;
54831;SDS011;40730;53.068;6.572;2023-05-14T09:23:28;11.75;;;5.53;;
54831;SDS011;40730;53.068;6.572;2023-05-14T09:25:57;10.60;;;4.50;;
54831;SDS011;40730;53.068;6.572;2023-05-14T09:28:23;7.60;;;3.63;;
54831;SDS011;40730;53.068;6.572;2023-05-14T09:30:52;10.60;;;3.65;;
54831;SDS011;40730;53.068;6.572;2023-05-14T09:33:27;9.57;;;4.28;;
54831;SDS011;40730;53.068;6.572;2023-05-14T09:36:00;7.22;;;4.88;;
54831;SDS011;40730;53.068;6.572;2023-05-14T09:38:32;8.45;;;3.95;;
54831;SDS011;40730;53.068;6.572;2023-05-14T09:40:58;5.88;;;3.55;;
54831;SDS011;40730;53.068;6.572;2023-05-14T09:43:24;9.43;;;4.05;;
54831;SDS011;40730;53.068;6.572;2023-05-14T09:45:51;10.80;;;4.20;;
54831;SDS011;40730;53.068;6.572;2023-05-14T09:48:17;11.02;;;4.47;;
54831;SDS011;40730;53.068;6.572;2023-05-14T09:50:43;9.38;;;4.78;;
54831;SDS011;40730;53.068;6.572;2023-05-14T09:53:10;9.30;;;3.72;;
54831;SDS011;40730;53.068;6.572;2023-05-14T09:55:36;8.70;;;3.15;;
54831;SDS011;40730;53.068;6.572;2023-05-14T09:58:02;8.07;;;4.03;;
54831;SDS011;40730;53.068;6.572;2023-05-14T10:00:31;8.82;;;4.40;;
54831;SDS011;40730;53.068;6.572;2023-05-14T10:02:58;7.78;;;3.30;;
54831;SDS011;40730;53.068;6.572;2023-05-14T10:05:25;7.13;;;2.58;;
54831;SDS011;40730;53.068;6.572;2023-05-14T10:07:53;6.18;;;3.10;;
54831;SDS011;40730;53.068;6.572;2023-05-14T10:10:23;7.05;;;4.00;;
54831;SDS011;40730;53.068;6.572;2023-05-14T10:12:55;7.68;;;3.67;;
54831;SDS011;40730;53.068;6.572;2023-05-14T10:15:24;9.88;;;3.33;;
54831;SDS011;40730;53.068;6.572;2023-05-14T10:17:57;7.90;;;3.50;;
54831;SDS011;40730;53.068;6.572;2023-05-14T10:20:27;5.95;;;3.78;;
54831;SDS011;40730;53.068;6.572;2023-05-14T10:22:54;5.45;;;3.08;;
54831;SDS011;40730;53.068;6.572;2023-05-14T10:25:20;10.38;;;3.80;;
54831;SDS011;40730;53.068;6.572;2023-05-14T10:27:46;8.02;;;4.22;;
54831;SDS011;40730;53.068;6.572;2023-05-14T10:30:12;7.43;;;3.40;;
54831;SDS011;40730;53.068;6.572;2023-05-14T10:32:38;10.90;;;3.42;;
54831;SDS011;40730;53.068;6.572;2023-05-14T10:35:15;7.35;;;3.63;;
54831;SDS011;40730;53.068;6.572;2023-05-14T10:37:44;7.95;;;3.75;;
54831;SDS011;40730;53.068;6.572;2023-05-14T10:40:11;7.60;;;3.88;;
54831;SDS011;40730;53.068;6.572;2023-05-14T10:42:38;6.32;;;4.07;;
54831;SDS011;40730;53.068;6.572;2023-05-14T10:45:14;8.50;;;4.15;;
54831;SDS011;40730;53.068;6.572;2023-05-14T10:47:44;6.35;;;3.90;;
54831;SDS011;40730;53.068;6.572;2023-05-14T10:50:11;7.82;;;3.08;;
54831;SDS011;40730;53.068;6.572;2023-05-14T10:52:42;9.20;;;5.18;;
54831;SDS011;40730;53.068;6.572;2023-05-14T10:55:11;8.93;;;4.18;;
54831;SDS011;40730;53.068;6.572;2023-05-14T10:57:38;7.32;;;4.95;;
54831;SDS011;40730;53.068;6.572;2023-05-14T11:00:06;5.53;;;4.60;;
54831;SDS011;40730;53.068;6.572;2023-05-14T11:02:36;6.55;;;4.55;;
54831;SDS011;40730;53.068;6.572;2023-05-14T11:05:12;11.15;;;5.20;;
54831;SDS011;40730;53.068;6.572;2023-05-14T11:07:41;8.82;;;4.75;;
54831;SDS011;40730;53.068;6.572;2023-05-14T11:10:09;8.60;;;4.25;;
54831;SDS011;40730;53.068;6.572;2023-05-14T11:12:36;5.55;;;3.60;;
54831;SDS011;40730;53.068;6.572;2023-05-14T11:15:05;4.93;;;3.13;;
54831;SDS011;40730;53.068;6.572;2023-05-14T11:17:33;8.40;;;4.03;;
54831;SDS011;40730;53.068;6.572;2023-05-14T11:20:00;7.95;;;3.85;;
54831;SDS011;40730;53.068;6.572;2023-05-14T11:22:26;8.50;;;3.78;;
54831;SDS011;40730;53.068;6.572;2023-05-14T11:24:52;5.85;;;3.15;;
54831;SDS011;40730;53.068;6.572;2023-05-14T11:27:18;12.35;;;3.65;;
54831;SDS011;40730;53.068;6.572;2023-05-14T11:29:44;7.50;;;3.47;;
54831;SDS011;40730;53.068;6.572;2023-05-14T11:32:11;5.85;;;2.50;;
54831;SDS011;40730;53.068;6.572;2023-05-14T11:34:38;4.55;;;3.13;;
54831;SDS011;40730;53.068;6.572;2023-05-14T11:37:04;4.30;;;2.25;;
54831;SDS011;40730;53.068;6.572;2023-05-14T11:39:34;3.42;;;2.05;;
54831;SDS011;40730;53.068;6.572;2023-05-14T11:42:02;4.45;;;2.22;;
54831;SDS011;40730;53.068;6.572;2023-05-14T11:44:34;5.00;;;1.77;;
54831;SDS011;40730;53.068;6.572;2023-05-14T11:46:59;5.70;;;1.33;;
54831;SDS011;40730;53.068;6.572;2023-05-14T11:49:29;5.25;;;1.85;;
54831;SDS011;40730;53.068;6.572;2023-05-14T11:51:59;3.90;;;1.35;;
54831;SDS011;40730;53.068;6.572;2023-05-14T11:54:29;2.97;;;1.80;;
54831;SDS011;40730;53.068;6.572;2023-05-14T11:56:56;3.20;;;1.70;;
54831;SDS011;40730;53.068;6.572;2023-05-14T11:59:23;4.82;;;1.20;;
54831;SDS011;40730;53.068;6.572;2023-05-14T12:01:51;5.78;;;1.48;;
54831;SDS011;40730;53.068;6.572;2023-05-14T12:04:17;3.35;;;1.13;;
54831;SDS011;40730;53.068;6.572;2023-05-14T12:06:46;4.72;;;1.15;;
54831;SDS011;40730;53.068;6.572;2023-05-14T12:09:13;4.60;;;1.38;;
54831;SDS011;40730;53.068;6.572;2023-05-14T12:11:44;3.28;;;1.70;;
54831;SDS011;40730;53.068;6.572;2023-05-14T12:14:16;4.85;;;1.67;;
54831;SDS011;40730;53.068;6.572;2023-05-14T12:16:43;4.82;;;0.93;;
54831;SDS011;40730;53.068;6.572;2023-05-14T12:19:10;2.80;;;1.00;;
54831;SDS011;40730;53.068;6.572;2023-05-14T12:21:38;4.97;;;1.05;;
54831;SDS011;40730;53.068;6.572;2023-05-14T12:24:08;3.25;;;1.20;;
54831;SDS011;40730;53.068;6.572;2023-05-14T12:26:34;2.22;;;0.80;;
54831;SDS011;40730;53.068;6.572;2023-05-14T12:29:00;4.10;;;1.52;;
54831;SDS011;40730;53.068;6.572;2023-05-14T12:31:28;4.82;;;1.55;;
54831;SDS011;40730;53.068;6.572;2023-05-14T12:33:54;3.53;;;1.20;;
54831;SDS011;40730;53.068;6.572;2023-05-14T12:36:19;2.65;;;1.23;;
54831;SDS011;40730;53.068;6.572;2023-05-14T12:38:45;5.35;;;1.33;;
54831;SDS011;40730;53.068;6.572;2023-05-14T12:41:11;3.90;;;1.35;;
54831;SDS011;40730;53.068;6.572;2023-05-14T12:43:36;5.38;;;1.35;;
54831;SDS011;40730;53.068;6.572;2023-05-14T12:46:02;6.97;;;1.45;;
54831;SDS011;40730;53.068;6.572;2023-05-14T12:48:27;4.05;;;1.42;;
54831;SDS011;40730;53.068;6.572;2023-05-14T12:50:53;6.60;;;1.23;;
54831;SDS011;40730;53.068;6.572;2023-05-14T12:53:19;7.45;;;1.10;;
54831;SDS011;40730;53.068;6.572;2023-05-14T12:55:45;7.57;;;0.93;;
54831;SDS011;40730;53.068;6.572;2023-05-14T12:58:10;5.82;;;1.20;;
54831;SDS011;40730;53.068;6.572;2023-05-14T13:00:36;4.22;;;1.10;;
54831;SDS011;40730;53.068;6.572;2023-05-14T13:03:01;3.20;;;0.82;;
54831;SDS011;40730;53.068;6.572;2023-05-14T13:05:27;2.42;;;1.40;;
54831;SDS011;40730;53.068;6.572;2023-05-14T13:07:53;1.95;;;1.13;;
54831;SDS011;40730;53.068;6.572;2023-05-14T13:10:22;3.53;;;1.20;;
54831;SDS011;40730;53.068;6.572;2023-05-14T13:12:48;3.50;;;1.15;;
54831;SDS011;40730;53.068;6.572;2023-05-14T13:15:14;2.03;;;1.10;;
54831;SDS011;40730;53.068;6.572;2023-05-14T13:17:40;7.00;;;1.52;;
54831;SDS011;40730;53.068;6.572;2023-05-14T13:20:06;6.80;;;1.40;;
54831;SDS011;40730;53.068;6.572;2023-05-14T13:22:32;2.58;;;1.08;;
54831;SDS011;40730;53.068;6.572;2023-05-14T13:24:57;2.03;;;0.98;;
54831;SDS011;40730;53.068;6.572;2023-05-14T13:27:23;1.88;;;0.70;;
54831;SDS011;40730;53.068;6.572;2023-05-14T13:29:48;4.78;;;1.08;;
54831;SDS011;40730;53.068;6.572;2023-05-14T13:32:14;4.38;;;1.35;;
54831;SDS011;40730;53.068;6.572;2023-05-14T13:34:40;4.28;;;0.93;;
54831;SDS011;40730;53.068;6.572;2023-05-14T13:37:05;2.40;;;0.90;;
54831;SDS011;40730;53.068;6.572;2023-05-14T13:39:31;2.63;;;1.05;;
54831;SDS011;40730;53.068;6.572;2023-05-14T13:41:56;2.15;;;1.30;;
54831;SDS011;40730;53.068;6.572;2023-05-14T13:44:22;3.50;;;1.08;;
54831;SDS011;40730;53.068;6.572;2023-05-14T13:46:48;1.52;;;1.10;;
54831;SDS011;40730;53.068;6.572;2023-05-14T13:49:14;3.00;;;1.08;;
54831;SDS011;40730;53.068;6.572;2023-05-14T13:51:39;4.75;;;1.30;;
54831;SDS011;40730;53.068;6.572;2023-05-14T13:54:05;2.42;;;1.10;;
54831;SDS011;40730;53.068;6.572;2023-05-14T13:56:31;1.75;;;1.15;;
54831;SDS011;40730;53.068;6.572;2023-05-14T13:58:56;4.53;;;1.20;;
54831;SDS011;40730;53.068;6.572;2023-05-14T14:01:22;3.35;;;1.45;;
54831;SDS011;40730;53.068;6.572;2023-05-14T14:03:48;2.72;;;1.40;;
54831;SDS011;40730;53.068;6.572;2023-05-14T14:06:13;5.95;;;1.30;;
54831;SDS011;40730;53.068;6.572;2023-05-14T14:08:39;3.75;;;1.55;;
54831;SDS011;40730;53.068;6.572;2023-05-14T14:11:04;4.35;;;0.82;;
54831;SDS011;40730;53.068;6.572;2023-05-14T14:13:30;3.70;;;1.17;;
54831;SDS011;40730;53.068;6.572;2023-05-14T14:15:56;4.45;;;0.85;;
54831;SDS011;40730;53.068;6.572;2023-05-14T14:18:21;2.85;;;0.80;;
54831;SDS011;40730;53.068;6.572;2023-05-14T14:20:47;3.00;;;0.98;;
54831;SDS011;40730;53.068;6.572;2023-05-14T14:23:13;4.10;;;1.30;;
54831;SDS011;40730;53.068;6.572;2023-05-14T14:25:38;5.85;;;0.85;;
54831;SDS011;40730;53.068;6.572;2023-05-14T14:28:04;3.90;;;1.17;;
54831;SDS011;40730;53.068;6.572;2023-05-14T14:30:30;3.08;;;1.20;;
54831;SDS011;40730;53.068;6.572;2023-05-14T14:32:56;3.88;;;1.38;;